sensor_id;sensor_type;location;lat;lon;timestamp;temperature;humidity
16958;DHT22;8595;52.542;11.974;2023-12-14T00:00:24;5.40;99.90
16958;DHT22;8595;52.542;11.974;2023-12-14T00:02:51;5.40;99.90
16958;DHT22;8595;52.542;11.974;2023-12-14T00:05:19;5.40;99.90
16958;DHT22;8595;52.542;11.974;2023-12-14T00:07:46;5.40;99.90
16958;DHT22;8595;52.542;11.974;2023-12-14T00:10:12;5.40;99.90
16958;DHT22;8595;52.542;11.974;2023-12-14T00:12:39;5.50;99.90
16958;DHT22;8595;52.542;11.974;2023-12-14T00:15:06;5.40;99.90
16958;DHT22;8595;52.542;11.974;2023-12-14T00:17:33;5.50;99.90
16958;DHT22;8595;52.542;11.974;2023-12-14T00:20:00;5.40;99.90
16958;DHT22;8595;52.542;11.974;2023-12-14T00:22:28;5.40;99.90
16958;DHT22;8595;52.542;11.974;2023-12-14T00:24:54;5.40;99.90
16958;DHT22;8595;52.542;11.974;2023-12-14T00:27:21;5.40;99.90
16958;DHT22;8595;52.542;11.974;2023-12-14T00:29:48;5.40;99.90
16958;DHT22;8595;52.542;11.974;2023-12-14T00:32:14;5.30;99.90
16958;DHT22;8595;52.542;11.974;2023-12-14T00:34:41;5.40;99.90
16958;DHT22;8595;52.542;11.974;2023-12-14T00:37:08;5.40;99.90
16958;DHT22;8595;52.542;11.974;2023-12-14T00:39:35;5.30;99.90
16958;DHT22;8595;52.542;11.974;2023-12-14T00:42:02;5.30;99.90
16958;DHT22;8595;52.542;11.974;2023-12-14T00:44:29;5.30;99.90
16958;DHT22;8595;52.542;11.974;2023-12-14T00:46:56;5.30;99.90
16958;DHT22;8595;52.542;11.974;2023-12-14T00:49:24;5.20;99.90
16958;DHT22;8595;52.542;11.974;2023-12-14T00:51:53;5.20;99.90
16958;DHT22;8595;52.542;11.974;2023-12-14T00:54:20;5.20;99.90
16958;DHT22;8595;52.542;11.974;2023-12-14T00:56:48;5.10;99.90
16958;DHT22;8595;52.542;11.974;2023-12-14T00:59:14;5.10;99.90
16958;DHT22;8595;52.542;11.974;2023-12-14T01:01:41;5.20;99.90
16958;DHT22;8595;52.542;11.974;2023-12-14T01:04:09;5.20;99.90
16958;DHT22;8595;52.542;11.974;2023-12-14T01:06:35;5.20;99.90
16958;DHT22;8595;52.542;11.974;2023-12-14T01:09:02;5.20;99.90
16958;DHT22;8595;52.542;11.974;2023-12-14T01:11:29;5.10;99.90
16958;DHT22;8595;52.542;11.974;2023-12-14T01:13:57;5.20;99.90
16958;DHT22;8595;52.542;11.974;2023-12-14T01:16:25;5.20;99.90
16958;DHT22;8595;52.542;11.974;2023-12-14T01:18:52;5.20;99.90
16958;DHT22;8595;52.542;11.974;2023-12-14T01:21:19;5.20;99.90
16958;DHT22;8595;52.542;11.974;2023-12-14T01:23:46;5.20;99.90
16958;DHT22;8595;52.542;11.974;2023-12-14T01:26:12;5.20;99.90
16958;DHT22;8595;52.542;11.974;2023-12-14T01:28:39;5.10;99.90
16958;DHT22;8595;52.542;11.974;2023-12-14T01:31:07;5.00;99.90
16958;DHT22;8595;52.542;11.974;2023-12-14T01:33:34;5.00;99.90
16958;DHT22;8595;52.542;11.974;2023-12-14T01:36:00;5.10;99.90
16958;DHT22;8595;52.542;11.974;2023-12-14T01:38:27;5.00;99.90
16958;DHT22;8595;52.542;11.974;2023-12-14T01:40:54;5.00;99.90
16958;DHT22;8595;52.542;11.974;2023-12-14T01:43:21;5.00;99.90
16958;DHT22;8595;52.542;11.974;2023-12-14T01:45:48;5.00;99.90
16958;DHT22;8595;52.542;11.974;2023-12-14T01:48:16;5.00;99.90
16958;DHT22;8595;52.542;11.974;2023-12-14T01:50:43;5.00;99.90
16958;DHT22;8595;52.542;11.974;2023-12-14T01:53:09;5.10;99.90
16958;DHT22;8595;52.542;11.974;2023-12-14T01:55:36;5.10;99.90
16958;DHT22;8595;52.542;11.974;2023-12-14T01:58:03;5.10;99.90
16958;DHT22;8595;52.542;11.974;2023-12-14T02:00:36;5.10;99.90
16958;DHT22;8595;52.542;11.974;2023-12-14T02:03:04;5.00;99.90
16958;DHT22;8595;52.542;11.974;2023-12-14T02:05:32;5.00;99.90
16958;DHT22;8595;52.542;11.974;2023-12-14T02:07:59;5.00;99.90
16958;DHT22;8595;52.542;11.974;2023-12-14T02:10:26;4.90;99.90
16958;DHT22;8595;52.542;11.974;2023-12-14T02:12:53;5.00;99.90
16958;DHT22;8595;52.542;11.974;2023-12-14T02:15:19;4.90;99.90
16958;DHT22;8595;52.542;11.974;2023-12-14T02:17:46;4.90;99.90
16958;DHT22;8595;52.542;11.974;2023-12-14T02:20:13;4.90;99.90
16958;DHT22;8595;52.542;11.974;2023-12-14T02:22:50;4.80;99.90
16958;DHT22;8595;52.542;11.974;2023-12-14T02:25:17;4.90;99.90
16958;DHT22;8595;52.542;11.974;2023-12-14T02:27:43;4.90;99.90
16958;DHT22;8595;52.542;11.974;2023-12-14T02:30:11;4.90;99.90
16958;DHT22;8595;52.542;11.974;2023-12-14T02:32:38;4.70;99.90
16958;DHT22;8595;52.542;11.974;2023-12-14T02:35:06;4.60;99.90
16958;DHT22;8595;52.542;11.974;2023-12-14T02:37:33;4.70;99.90
16958;DHT22;8595;52.542;11.974;2023-12-14T02:40:04;4.70;99.90
16958;DHT22;8595;52.542;11.974;2023-12-14T02:42:32;4.60;99.90
16958;DHT22;8595;52.542;11.974;2023-12-14T02:44:59;4.60;99.90
16958;DHT22;8595;52.542;11.974;2023-12-14T02:47:27;4.60;99.90
16958;DHT22;8595;52.542;11.974;2023-12-14T02:49:54;4.60;99.90
16958;DHT22;8595;52.542;11.974;2023-12-14T02:52:21;4.60;99.90
16958;DHT22;8595;52.542;11.974;2023-12-14T02:54:47;4.60;99.90
16958;DHT22;8595;52.542;11.974;2023-12-14T02:57:15;4.60;99.90
16958;DHT22;8595;52.542;11.974;2023-12-14T02:59:42;4.60;99.90
16958;DHT22;8595;52.542;11.974;2023-12-14T03:02:09;4.60;99.90
16958;DHT22;8595;52.542;11.974;2023-12-14T03:04:37;4.60;99.90
16958;DHT22;8595;52.542;11.974;2023-12-14T03:07:04;4.60;99.90
16958;DHT22;8595;52.542;11.974;2023-12-14T03:09:31;4.70;99.90
16958;DHT22;8595;52.542;11.974;2023-12-14T03:11:57;4.60;99.90
16958;DHT22;8595;52.542;11.974;2023-12-14T03:14:32;4.60;99.90
16958;DHT22;8595;52.542;11.974;2023-12-14T03:16:59;4.60;99.90
16958;DHT22;8595;52.542;11.974;2023-12-14T03:19:26;4.60;99.90
16958;DHT22;8595;52.542;11.974;2023-12-14T03:21:52;4.60;99.90
16958;DHT22;8595;52.542;11.974;2023-12-14T03:24:19;4.50;99.90
16958;DHT22;8595;52.542;11.974;2023-12-14T03:26:46;4.50;99.90
16958;DHT22;8595;52.542;11.974;2023-12-14T03:29:13;4.40;99.90
16958;DHT22;8595;52.542;11.974;2023-12-14T03:31:41;4.40;99.90
16958;DHT22;8595;52.542;11.974;2023-12-14T03:34:07;4.40;99.90
16958;DHT22;8595;52.542;11.974;2023-12-14T03:36:34;4.40;99.90
16958;DHT22;8595;52.542;11.974;2023-12-14T03:39:00;4.50;99.90
16958;DHT22;8595;52.542;11.974;2023-12-14T03:41:27;4.60;99.90
16958;DHT22;8595;52.542;11.974;2023-12-14T03:43:54;4.50;99.90
16958;DHT22;8595;52.542;11.974;2023-12-14T03:46:20;4.40;99.90
16958;DHT22;8595;52.542;11.974;2023-12-14T03:48:48;4.40;99.90
16958;DHT22;8595;52.542;11.974;2023-12-14T03:51:17;4.40;99.90
16958;DHT22;8595;52.542;11.974;2023-12-14T03:53:44;4.40;99.90
16958;DHT22;8595;52.542;11.974;2023-12-14T03:56:11;4.40;99.90
16958;DHT22;8595;52.542;11.974;2023-12-14T03:58:38;4.30;99.90
16958;DHT22;8595;52.542;11.974;2023-12-14T04:01:05;4.40;99.90
16958;DHT22;8595;52.542;11.974;2023-12-14T04:03:31;4.50;99.90
16958;DHT22;8595;52.542;11.974;2023-12-14T04:06:00;4.50;99.90
16958;DHT22;8595;52.542;11.974;2023-12-14T04:08:26;4.50;99.90
16958;DHT22;8595;52.542;11.974;2023-12-14T04:10:53;4.50;99.90
16958;DHT22;8595;52.542;11.974;2023-12-14T04:13:20;4.50;99.90
16958;DHT22;8595;52.542;11.974;2023-12-14T04:15:46;4.30;99.90
16958;DHT22;8595;52.542;11.974;2023-12-14T04:18:13;4.30;99.90
16958;DHT22;8595;52.542;11.974;2023-12-14T04:20:40;4.30;99.90
16958;DHT22;8595;52.542;11.974;2023-12-14T04:23:08;4.20;99.90
16958;DHT22;8595;52.542;11.974;2023-12-14T04:25:34;4.20;99.90
16958;DHT22;8595;52.542;11.974;2023-12-14T04:28:01;4.00;99.90
16958;DHT22;8595;52.542;11.974;2023-12-14T04:30:28;4.00;99.90
16958;DHT22;8595;52.542;11.974;2023-12-14T04:32:54;3.90;99.90
16958;DHT22;8595;52.542;11.974;2023-12-14T04:35:20;3.90;99.90
16958;DHT22;8595;52.542;11.974;2023-12-14T04:37:47;4.00;99.90
16958;DHT22;8595;52.542;11.974;2023-12-14T04:40:15;4.00;99.90
16958;DHT22;8595;52.542;11.974;2023-12-14T04:42:42;4.20;99.90
16958;DHT22;8595;52.542;11.974;2023-12-14T04:45:09;4.30;99.90
16958;DHT22;8595;52.542;11.974;2023-12-14T04:47:36;4.40;99.90
16958;DHT22;8595;52.542;11.974;2023-12-14T04:50:03;4.10;99.90
16958;DHT22;8595;52.542;11.974;2023-12-14T04:52:30;4.10;99.90
16958;DHT22;8595;52.542;11.974;2023-12-14T04:54:57;4.10;99.90
16958;DHT22;8595;52.542;11.974;2023-12-14T04:57:25;4.00;99.90
16958;DHT22;8595;52.542;11.974;2023-12-14T04:59:52;4.10;99.90
16958;DHT22;8595;52.542;11.974;2023-12-14T05:02:18;4.00;99.90
16958;DHT22;8595;52.542;11.974;2023-12-14T05:04:45;3.90;99.90
16958;DHT22;8595;52.542;11.974;2023-12-14T05:07:11;3.90;99.90
16958;DHT22;8595;52.542;11.974;2023-12-14T05:09:38;3.80;99.90
16958;DHT22;8595;52.542;11.974;2023-12-14T05:12:05;3.80;99.90
16958;DHT22;8595;52.542;11.974;2023-12-14T05:14:33;3.90;99.90
16958;DHT22;8595;52.542;11.974;2023-12-14T05:17:00;3.90;99.90
16958;DHT22;8595;52.542;11.974;2023-12-14T05:19:27;4.00;99.90
16958;DHT22;8595;52.542;11.974;2023-12-14T05:21:53;4.00;99.90
16958;DHT22;8595;52.542;11.974;2023-12-14T05:24:20;4.10;99.90
16958;DHT22;8595;52.542;11.974;2023-12-14T05:26:47;4.20;99.90
16958;DHT22;8595;52.542;11.974;2023-12-14T05:29:14;4.30;99.90
16958;DHT22;8595;52.542;11.974;2023-12-14T05:31:42;4.20;99.90
16958;DHT22;8595;52.542;11.974;2023-12-14T05:34:08;4.10;99.90
16958;DHT22;8595;52.542;11.974;2023-12-14T05:36:35;4.10;99.90
16958;DHT22;8595;52.542;11.974;2023-12-14T05:39:01;4.10;99.90
16958;DHT22;8595;52.542;11.974;2023-12-14T05:41:29;4.20;99.90
16958;DHT22;8595;52.542;11.974;2023-12-14T05:43:56;4.20;99.90
16958;DHT22;8595;52.542;11.974;2023-12-14T05:46:23;4.20;99.90
16958;DHT22;8595;52.542;11.974;2023-12-14T05:48:51;4.10;99.90
16958;DHT22;8595;52.542;11.974;2023-12-14T05:51:26;4.20;99.90
16958;DHT22;8595;52.542;11.974;2023-12-14T05:53:53;4.20;99.90
16958;DHT22;8595;52.542;11.974;2023-12-14T05:56:20;4.10;99.90
16958;DHT22;8595;52.542;11.974;2023-12-14T05:58:47;4.10;99.90
16958;DHT22;8595;52.542;11.974;2023-12-14T06:01:16;4.00;99.90
16958;DHT22;8595;52.542;11.974;2023-12-14T06:03:43;4.00;99.90
16958;DHT22;8595;52.542;11.974;2023-12-14T06:06:11;4.00;99.90
16958;DHT22;8595;52.542;11.974;2023-12-14T06:08:38;4.00;99.90
16958;DHT22;8595;52.542;11.974;2023-12-14T06:11:05;4.00;99.90
16958;DHT22;8595;52.542;11.974;2023-12-14T06:13:32;4.10;99.90
16958;DHT22;8595;52.542;11.974;2023-12-14T06:15:58;4.00;99.90
16958;DHT22;8595;52.542;11.974;2023-12-14T06:18:25;3.90;99.90
16958;DHT22;8595;52.542;11.974;2023-12-14T06:20:52;3.80;99.90
16958;DHT22;8595;52.542;11.974;2023-12-14T06:23:20;3.90;99.90
16958;DHT22;8595;52.542;11.974;2023-12-14T06:25:47;3.90;99.90
16958;DHT22;8595;52.542;11.974;2023-12-14T06:28:13;4.00;99.90
16958;DHT22;8595;52.542;11.974;2023-12-14T06:30:40;3.80;99.90
16958;DHT22;8595;52.542;11.974;2023-12-14T06:33:07;3.70;99.90
16958;DHT22;8595;52.542;11.974;2023-12-14T06:35:33;3.70;99.90
16958;DHT22;8595;52.542;11.974;2023-12-14T06:38:00;3.70;99.90
16958;DHT22;8595;52.542;11.974;2023-12-14T06:40:28;3.90;99.90
16958;DHT22;8595;52.542;11.974;2023-12-14T06:42:55;4.00;99.90
16958;DHT22;8595;52.542;11.974;2023-12-14T06:45:21;4.00;99.90
16958;DHT22;8595;52.542;11.974;2023-12-14T06:47:48;4.10;99.90
16958;DHT22;8595;52.542;11.974;2023-12-14T06:50:15;4.10;99.90
16958;DHT22;8595;52.542;11.974;2023-12-14T06:52:42;4.10;99.90
16958;DHT22;8595;52.542;11.974;2023-12-14T06:55:08;4.10;99.90
16958;DHT22;8595;52.542;11.974;2023-12-14T06:57:37;4.10;99.90
16958;DHT22;8595;52.542;11.974;2023-12-14T07:00:05;3.90;99.90
16958;DHT22;8595;52.542;11.974;2023-12-14T07:02:31;3.90;99.90
16958;DHT22;8595;52.542;11.974;2023-12-14T07:04:58;4.00;99.90
16958;DHT22;8595;52.542;11.974;2023-12-14T07:07:25;3.80;99.90
16958;DHT22;8595;52.542;11.974;2023-12-14T07:09:52;3.80;99.90
16958;DHT22;8595;52.542;11.974;2023-12-14T07:12:18;3.70;99.90
16958;DHT22;8595;52.542;11.974;2023-12-14T07:14:47;3.90;99.90
16958;DHT22;8595;52.542;11.974;2023-12-14T07:17:14;3.80;99.90
16958;DHT22;8595;52.542;11.974;2023-12-14T07:19:40;3.80;99.90
16958;DHT22;8595;52.542;11.974;2023-12-14T07:22:07;3.70;99.90
16958;DHT22;8595;52.542;11.974;2023-12-14T07:24:34;3.80;99.90
16958;DHT22;8595;52.542;11.974;2023-12-14T07:27:00;3.80;99.90
16958;DHT22;8595;52.542;11.974;2023-12-14T07:29:27;3.70;99.90
16958;DHT22;8595;52.542;11.974;2023-12-14T07:31:55;3.80;99.90
16958;DHT22;8595;52.542;11.974;2023-12-14T07:34:22;3.80;99.90
16958;DHT22;8595;52.542;11.974;2023-12-14T07:36:50;3.80;99.90
16958;DHT22;8595;52.542;11.974;2023-12-14T07:39:16;3.60;99.90
16958;DHT22;8595;52.542;11.974;2023-12-14T07:41:44;3.70;99.90
16958;DHT22;8595;52.542;11.974;2023-12-14T07:44:10;3.70;99.90
16958;DHT22;8595;52.542;11.974;2023-12-14T07:46:37;3.70;99.90
16958;DHT22;8595;52.542;11.974;2023-12-14T07:49:08;3.80;99.90
16958;DHT22;8595;52.542;11.974;2023-12-14T07:51:34;3.70;99.90
16958;DHT22;8595;52.542;11.974;2023-12-14T07:54:01;3.80;99.90
16958;DHT22;8595;52.542;11.974;2023-12-14T07:56:29;3.80;99.90
16958;DHT22;8595;52.542;11.974;2023-12-14T07:58:55;3.80;99.90
16958;DHT22;8595;52.542;11.974;2023-12-14T08:01:22;3.70;99.90
16958;DHT22;8595;52.542;11.974;2023-12-14T08:03:49;3.70;99.90
16958;DHT22;8595;52.542;11.974;2023-12-14T08:06:17;3.70;99.90
16958;DHT22;8595;52.542;11.974;2023-12-14T08:08:43;3.70;99.90
16958;DHT22;8595;52.542;11.974;2023-12-14T08:11:10;3.80;99.90
16958;DHT22;8595;52.542;11.974;2023-12-14T08:13:37;3.80;99.90
16958;DHT22;8595;52.542;11.974;2023-12-14T08:16:04;3.70;99.90
16958;DHT22;8595;52.542;11.974;2023-12-14T08:18:31;3.70;99.90
16958;DHT22;8595;52.542;11.974;2023-12-14T08:20:57;3.70;99.90
16958;DHT22;8595;52.542;11.974;2023-12-14T08:23:25;3.80;99.90
16958;DHT22;8595;52.542;11.974;2023-12-14T08:25:53;3.90;99.90
16958;DHT22;8595;52.542;11.974;2023-12-14T08:28:22;4.00;99.90
16958;DHT22;8595;52.542;11.974;2023-12-14T08:30:49;4.00;99.90
16958;DHT22;8595;52.542;11.974;2023-12-14T08:33:15;4.10;99.90
16958;DHT22;8595;52.542;11.974;2023-12-14T08:35:42;4.00;99.90
16958;DHT22;8595;52.542;11.974;2023-12-14T08:38:09;3.90;99.90
16958;DHT22;8595;52.542;11.974;2023-12-14T08:40:39;3.90;99.90
16958;DHT22;8595;52.542;11.974;2023-12-14T08:43:06;3.90;99.90
16958;DHT22;8595;52.542;11.974;2023-12-14T08:45:34;4.00;99.90
16958;DHT22;8595;52.542;11.974;2023-12-14T08:48:00;4.00;99.90
16958;DHT22;8595;52.542;11.974;2023-12-14T08:50:27;4.00;99.90
16958;DHT22;8595;52.542;11.974;2023-12-14T08:52:54;4.00;99.90
16958;DHT22;8595;52.542;11.974;2023-12-14T08:55:24;4.10;99.90
16958;DHT22;8595;52.542;11.974;2023-12-14T08:57:52;4.10;99.90
16958;DHT22;8595;52.542;11.974;2023-12-14T09:00:19;4.10;99.90
16958;DHT22;8595;52.542;11.974;2023-12-14T09:02:46;4.20;99.90
16958;DHT22;8595;52.542;11.974;2023-12-14T09:05:13;4.30;99.90
16958;DHT22;8595;52.542;11.974;2023-12-14T09:07:40;4.40;99.90
16958;DHT22;8595;52.542;11.974;2023-12-14T09:10:07;4.50;99.90
16958;DHT22;8595;52.542;11.974;2023-12-14T09:12:34;4.50;99.90
16958;DHT22;8595;52.542;11.974;2023-12-14T09:15:02;4.40;99.90
16958;DHT22;8595;52.542;11.974;2023-12-14T09:17:29;4.40;99.90
16958;DHT22;8595;52.542;11.974;2023-12-14T09:19:58;4.30;99.90
16958;DHT22;8595;52.542;11.974;2023-12-14T09:22:25;4.30;99.90
16958;DHT22;8595;52.542;11.974;2023-12-14T09:24:51;4.20;99.90
16958;DHT22;8595;52.542;11.974;2023-12-14T09:27:18;4.00;99.90
16958;DHT22;8595;52.542;11.974;2023-12-14T09:29:45;4.10;99.90
16958;DHT22;8595;52.542;11.974;2023-12-14T09:32:13;4.10;99.90
16958;DHT22;8595;52.542;11.974;2023-12-14T09:34:39;4.10;99.90
16958;DHT22;8595;52.542;11.974;2023-12-14T09:37:06;4.20;99.90
16958;DHT22;8595;52.542;11.974;2023-12-14T09:39:33;4.40;99.90
16958;DHT22;8595;52.542;11.974;2023-12-14T09:42:02;4.60;99.90
16958;DHT22;8595;52.542;11.974;2023-12-14T09:44:30;4.60;99.90
16958;DHT22;8595;52.542;11.974;2023-12-14T09:46:59;4.50;99.90
16958;DHT22;8595;52.542;11.974;2023-12-14T09:49:28;4.50;99.90
16958;DHT22;8595;52.542;11.974;2023-12-14T09:51:58;4.60;99.90
16958;DHT22;8595;52.542;11.974;2023-12-14T09:54:26;4.60;99.90
16958;DHT22;8595;52.542;11.974;2023-12-14T09:56:54;4.70;99.90
16958;DHT22;8595;52.542;11.974;2023-12-14T09:59:21;4.60;99.90
16958;DHT22;8595;52.542;11.974;2023-12-14T10:01:48;4.50;99.90
16958;DHT22;8595;52.542;11.974;2023-12-14T10:04:16;4.40;99.90
16958;DHT22;8595;52.542;11.974;2023-12-14T10:06:45;4.40;99.90
16958;DHT22;8595;52.542;11.974;2023-12-14T10:09:13;4.30;99.90
16958;DHT22;8595;52.542;11.974;2023-12-14T10:11:42;4.20;99.90
16958;DHT22;8595;52.542;11.974;2023-12-14T10:14:22;4.20;99.90
16958;DHT22;8595;52.542;11.974;2023-12-14T10:16:51;4.30;99.90
16958;DHT22;8595;52.542;11.974;2023-12-14T10:19:18;4.40;99.90
16958;DHT22;8595;52.542;11.974;2023-12-14T10:21:47;4.40;99.90
16958;DHT22;8595;52.542;11.974;2023-12-14T10:24:15;4.40;99.90
16958;DHT22;8595;52.542;11.974;2023-12-14T10:26:42;4.40;99.90
16958;DHT22;8595;52.542;11.974;2023-12-14T10:29:10;4.30;99.90
16958;DHT22;8595;52.542;11.974;2023-12-14T10:31:37;4.40;99.90
16958;DHT22;8595;52.542;11.974;2023-12-14T10:34:04;4.40;99.90
16958;DHT22;8595;52.542;11.974;2023-12-14T10:36:31;4.40;99.90
16958;DHT22;8595;52.542;11.974;2023-12-14T10:39:00;4.40;99.90
16958;DHT22;8595;52.542;11.974;2023-12-14T10:41:31;4.30;99.90
16958;DHT22;8595;52.542;11.974;2023-12-14T10:44:00;4.20;99.90
16958;DHT22;8595;52.542;11.974;2023-12-14T10:46:28;4.20;99.90
16958;DHT22;8595;52.542;11.974;2023-12-14T10:48:55;4.20;99.90
16958;DHT22;8595;52.542;11.974;2023-12-14T10:51:23;4.30;99.90
16958;DHT22;8595;52.542;11.974;2023-12-14T10:53:52;4.30;99.90
16958;DHT22;8595;52.542;11.974;2023-12-14T10:56:21;4.40;99.90
16958;DHT22;8595;52.542;11.974;2023-12-14T10:58:50;4.40;99.90
16958;DHT22;8595;52.542;11.974;2023-12-14T11:01:19;4.40;99.90
16958;DHT22;8595;52.542;11.974;2023-12-14T11:03:48;4.40;99.90
16958;DHT22;8595;52.542;11.974;2023-12-14T11:06:27;4.40;99.90
16958;DHT22;8595;52.542;11.974;2023-12-14T11:08:57;4.40;99.90
16958;DHT22;8595;52.542;11.974;2023-12-14T11:11:29;4.50;99.90
16958;DHT22;8595;52.542;11.974;2023-12-14T11:13:56;4.50;99.90
16958;DHT22;8595;52.542;11.974;2023-12-14T11:16:22;4.50;99.90
16958;DHT22;8595;52.542;11.974;2023-12-14T11:19:34;4.40;99.90
16958;DHT22;8595;52.542;11.974;2023-12-14T11:22:11;4.30;99.90
16958;DHT22;8595;52.542;11.974;2023-12-14T11:24:51;4.30;99.90
16958;DHT22;8595;52.542;11.974;2023-12-14T11:27:20;4.40;99.90
16958;DHT22;8595;52.542;11.974;2023-12-14T11:29:48;4.40;99.90
16958;DHT22;8595;52.542;11.974;2023-12-14T11:32:16;4.40;99.90
16958;DHT22;8595;52.542;11.974;2023-12-14T11:34:45;4.30;99.90
16958;DHT22;8595;52.542;11.974;2023-12-14T11:37:12;4.30;99.90
16958;DHT22;8595;52.542;11.974;2023-12-14T11:39:38;4.40;99.90
16958;DHT22;8595;52.542;11.974;2023-12-14T11:42:06;4.40;99.90
16958;DHT22;8595;52.542;11.974;2023-12-14T11:44:34;4.50;99.90
16958;DHT22;8595;52.542;11.974;2023-12-14T11:47:02;4.50;99.90
16958;DHT22;8595;52.542;11.974;2023-12-14T11:49:29;4.60;99.90
16958;DHT22;8595;52.542;11.974;2023-12-14T11:52:02;4.60;99.90
16958;DHT22;8595;52.542;11.974;2023-12-14T11:54:30;4.50;99.90
16958;DHT22;8595;52.542;11.974;2023-12-14T11:56:56;4.40;99.90
16958;DHT22;8595;52.542;11.974;2023-12-14T11:59:23;4.40;99.90
16958;DHT22;8595;52.542;11.974;2023-12-14T12:01:57;4.30;99.90
16958;DHT22;8595;52.542;11.974;2023-12-14T12:04:24;4.20;99.90
16958;DHT22;8595;52.542;11.974;2023-12-14T12:07:00;4.20;99.90
16958;DHT22;8595;52.542;11.974;2023-12-14T12:09:34;4.20;99.90
16958;DHT22;8595;52.542;11.974;2023-12-14T12:12:04;4.20;99.90
16958;DHT22;8595;52.542;11.974;2023-12-14T12:14:31;4.20;99.90
16958;DHT22;8595;52.542;11.974;2023-12-14T12:16:58;4.30;99.90
16958;DHT22;8595;52.542;11.974;2023-12-14T12:19:25;4.30;99.90
16958;DHT22;8595;52.542;11.974;2023-12-14T12:21:51;4.30;99.90
16958;DHT22;8595;52.542;11.974;2023-12-14T12:24:20;4.30;99.90
16958;DHT22;8595;52.542;11.974;2023-12-14T12:26:47;4.30;99.90
16958;DHT22;8595;52.542;11.974;2023-12-14T12:29:13;4.40;99.90
16958;DHT22;8595;52.542;11.974;2023-12-14T12:31:40;4.40;99.90
16958;DHT22;8595;52.542;11.974;2023-12-14T12:34:08;4.40;99.90
16958;DHT22;8595;52.542;11.974;2023-12-14T12:36:34;4.50;99.90
16958;DHT22;8595;52.542;11.974;2023-12-14T12:39:02;4.50;99.90
16958;DHT22;8595;52.542;11.974;2023-12-14T12:41:32;4.60;99.90
16958;DHT22;8595;52.542;11.974;2023-12-14T12:43:59;4.60;99.90
16958;DHT22;8595;52.542;11.974;2023-12-14T12:46:31;4.50;99.90
16958;DHT22;8595;52.542;11.974;2023-12-14T12:48:58;4.60;99.90
16958;DHT22;8595;52.542;11.974;2023-12-14T12:51:25;4.70;99.90
16958;DHT22;8595;52.542;11.974;2023-12-14T12:53:52;4.70;99.90
16958;DHT22;8595;52.542;11.974;2023-12-14T12:56:19;4.70;99.90
16958;DHT22;8595;52.542;11.974;2023-12-14T12:58:47;4.70;99.90
16958;DHT22;8595;52.542;11.974;2023-12-14T13:01:15;4.80;99.90
16958;DHT22;8595;52.542;11.974;2023-12-14T13:03:42;4.80;99.90
16958;DHT22;8595;52.542;11.974;2023-12-14T13:06:09;4.80;99.90
16958;DHT22;8595;52.542;11.974;2023-12-14T13:08:35;4.70;99.90
16958;DHT22;8595;52.542;11.974;2023-12-14T13:11:02;4.70;99.90
16958;DHT22;8595;52.542;11.974;2023-12-14T13:13:29;4.70;99.90
16958;DHT22;8595;52.542;11.974;2023-12-14T13:15:58;4.70;99.90
16958;DHT22;8595;52.542;11.974;2023-12-14T13:18:25;4.70;99.90
16958;DHT22;8595;52.542;11.974;2023-12-14T13:20:52;4.60;99.90
16958;DHT22;8595;52.542;11.974;2023-12-14T13:23:19;4.60;99.90
16958;DHT22;8595;52.542;11.974;2023-12-14T13:25:45;4.60;99.90
16958;DHT22;8595;52.542;11.974;2023-12-14T13:28:12;4.60;99.90
16958;DHT22;8595;52.542;11.974;2023-12-14T13:30:39;4.60;99.90
16958;DHT22;8595;52.542;11.974;2023-12-14T13:33:08;4.70;99.90
16958;DHT22;8595;52.542;11.974;2023-12-14T13:35:37;4.80;99.90
16958;DHT22;8595;52.542;11.974;2023-12-14T13:38:04;4.80;99.90
16958;DHT22;8595;52.542;11.974;2023-12-14T13:40:31;4.80;99.90
16958;DHT22;8595;52.542;11.974;2023-12-14T13:42:57;4.80;99.90
16958;DHT22;8595;52.542;11.974;2023-12-14T13:45:27;4.80;99.90
16958;DHT22;8595;52.542;11.974;2023-12-14T13:47:55;4.80;99.90
16958;DHT22;8595;52.542;11.974;2023-12-14T13:50:25;4.70;99.90
16958;DHT22;8595;52.542;11.974;2023-12-14T13:52:54;4.80;99.90
16958;DHT22;8595;52.542;11.974;2023-12-14T13:55:21;4.80;99.90
16958;DHT22;8595;52.542;11.974;2023-12-14T13:57:47;4.80;99.90
16958;DHT22;8595;52.542;11.974;2023-12-14T14:00:15;4.80;99.90
16958;DHT22;8595;52.542;11.974;2023-12-14T14:02:42;4.80;99.90
16958;DHT22;8595;52.542;11.974;2023-12-14T14:05:08;4.90;99.90
16958;DHT22;8595;52.542;11.974;2023-12-14T14:07:37;4.90;99.90
16958;DHT22;8595;52.542;11.974;2023-12-14T14:10:04;4.90;99.90
16958;DHT22;8595;52.542;11.974;2023-12-14T14:12:31;4.80;99.90
16958;DHT22;8595;52.542;11.974;2023-12-14T14:14:58;4.90;99.90
16958;DHT22;8595;52.542;11.974;2023-12-14T14:17:24;4.80;99.90
16958;DHT22;8595;52.542;11.974;2023-12-14T14:19:51;4.90;99.90
16958;DHT22;8595;52.542;11.974;2023-12-14T14:22:18;4.80;99.90
16958;DHT22;8595;52.542;11.974;2023-12-14T14:24:46;4.70;99.90
16958;DHT22;8595;52.542;11.974;2023-12-14T14:27:12;4.80;99.90
16958;DHT22;8595;52.542;11.974;2023-12-14T14:29:39;4.80;99.90
16958;DHT22;8595;52.542;11.974;2023-12-14T14:32:06;4.90;99.90
16958;DHT22;8595;52.542;11.974;2023-12-14T14:34:33;5.00;99.90
16958;DHT22;8595;52.542;11.974;2023-12-14T14:37:01;5.10;99.90
16958;DHT22;8595;52.542;11.974;2023-12-14T14:39:27;5.00;99.90
16958;DHT22;8595;52.542;11.974;2023-12-14T14:41:55;5.00;99.90
16958;DHT22;8595;52.542;11.974;2023-12-14T14:44:22;4.90;99.90
16958;DHT22;8595;52.542;11.974;2023-12-14T14:46:49;4.90;99.90
16958;DHT22;8595;52.542;11.974;2023-12-14T14:49:15;4.90;99.90
16958;DHT22;8595;52.542;11.974;2023-12-14T14:51:42;4.90;99.90
16958;DHT22;8595;52.542;11.974;2023-12-14T14:54:09;4.90;99.90
16958;DHT22;8595;52.542;11.974;2023-12-14T14:56:35;4.90;99.90
16958;DHT22;8595;52.542;11.974;2023-12-14T14:59:03;4.80;99.90
16958;DHT22;8595;52.542;11.974;2023-12-14T15:01:32;4.80;99.90
16958;DHT22;8595;52.542;11.974;2023-12-14T15:03:58;4.80;99.90
16958;DHT22;8595;52.542;11.974;2023-12-14T15:06:25;4.70;99.90
16958;DHT22;8595;52.542;11.974;2023-12-14T15:08:52;4.70;99.90
16958;DHT22;8595;52.542;11.974;2023-12-14T15:11:19;4.60;99.90
16958;DHT22;8595;52.542;11.974;2023-12-14T15:13:45;4.70;99.90
16958;DHT22;8595;52.542;11.974;2023-12-14T15:16:13;4.60;99.90
16958;DHT22;8595;52.542;11.974;2023-12-14T15:18:40;4.60;99.90
16958;DHT22;8595;52.542;11.974;2023-12-14T15:21:07;4.60;99.90
16958;DHT22;8595;52.542;11.974;2023-12-14T15:23:34;4.70;99.90
16958;DHT22;8595;52.542;11.974;2023-12-14T15:26:02;4.70;99.90
16958;DHT22;8595;52.542;11.974;2023-12-14T15:28:28;4.70;99.90
16958;DHT22;8595;52.542;11.974;2023-12-14T15:30:55;4.70;99.90
16958;DHT22;8595;52.542;11.974;2023-12-14T15:33:23;4.70;99.90
16958;DHT22;8595;52.542;11.974;2023-12-14T15:35:51;4.80;99.90
16958;DHT22;8595;52.542;11.974;2023-12-14T15:38:18;4.90;99.90
16958;DHT22;8595;52.542;11.974;2023-12-14T15:40:44;4.90;99.90
16958;DHT22;8595;52.542;11.974;2023-12-14T15:43:11;4.90;99.90
16958;DHT22;8595;52.542;11.974;2023-12-14T15:45:39;4.90;99.90